Garden City, Michigan
Current Conditions -  °F | °C
As of 10:53 AM on Tuesday 21 Oct 2014 (Local Time) from KDTW Reporting Station
Light Rain Light Rain  
Wind Chill: 43°   Ceiling: 2500
Heat Index: 47°   Visibility: 10mi
Dew Point: 42°   Wind: 9mph
Humidity: 83%   Direction: 330°NNW
Pressure: 30.03"   Gusts: NA
Location:  42.33°N, 83.33°W
Report Text: KDTW 211453Z 33008KT 10SM -RA FEW010 BKN025 OVC035 08/06 A3003 RMK AO2 RAB25E30B50 SLP170 P0000 60000 T00830056 53024 $
Loading
Personal Weather Stations






























Interactive Weather Map
Tropical Storm Tracking
New forecast layout! Learn more

10-Day Weather Forecast

Advertisements
Track Severe Weather on mobile